createdAt,value
2018-09-19T00:00:46.037Z,41.37
2018-09-19T00:03:15.555Z,41.46
2018-09-19T00:05:43.445Z,41.61
2018-09-19T00:08:11.730Z,41.36
2018-09-19T00:10:39.633Z,41.75
2018-09-19T00:13:07.501Z,41.77
2018-09-19T00:15:35.589Z,41.93
2018-09-19T00:18:03.483Z,41.85
2018-09-19T00:20:31.387Z,41.86
2018-09-19T00:22:59.310Z,41.95
2018-09-19T00:25:27.220Z,41.96
2018-09-19T00:27:55.142Z,41.94
2018-09-19T00:30:24.013Z,41.93
2018-09-19T00:32:51.906Z,41.97
2018-09-19T00:35:19.819Z,41.95
2018-09-19T00:37:47.709Z,41.71
2018-09-19T00:40:15.579Z,41.91
2018-09-19T00:42:43.509Z,41.84
2018-09-19T00:45:11.389Z,41.60
2018-09-19T00:47:39.293Z,41.77
2018-09-19T00:50:07.151Z,41.53
2018-09-19T00:52:35.048Z,41.62
2018-09-19T00:55:06.181Z,41.98
2018-09-19T00:57:34.040Z,41.79
2018-09-19T01:00:01.926Z,41.67
2018-09-19T01:02:29.839Z,41.54
2018-09-19T01:04:57.742Z,41.52
2018-09-19T01:07:25.664Z,41.42
2018-09-19T01:09:53.601Z,41.52
2018-09-19T01:12:21.491Z,41.50
2018-09-19T01:14:49.403Z,41.47
2018-09-19T01:17:17.369Z,41.88
2018-09-19T01:19:45.266Z,41.56
2018-09-19T01:22:13.159Z,41.84
2018-09-19T01:24:42.808Z,41.58
2018-09-19T01:27:10.685Z,41.82
2018-09-19T01:29:38.578Z,41.54
2018-09-19T01:32:06.511Z,41.68
2018-09-19T01:34:34.407Z,41.53
2018-09-19T01:37:02.507Z,41.97
2018-09-19T01:39:30.380Z,42.06
2018-09-19T01:41:58.298Z,42.03
2018-09-19T01:44:26.168Z,41.54
2018-09-19T01:46:54.091Z,41.66
2018-09-19T01:49:21.993Z,41.49
2018-09-19T01:51:53.441Z,41.53
2018-09-19T01:54:21.791Z,41.69
2018-09-19T01:56:49.681Z,41.86
2018-09-19T01:59:17.632Z,41.61
2018-09-19T02:01:45.603Z,41.53
2018-09-19T02:04:13.530Z,41.83
2018-09-19T02:06:41.417Z,41.64
2018-09-19T02:09:10.898Z,41.81
2018-09-19T02:11:39.085Z,41.86
2018-09-19T02:14:07.000Z,41.87
2018-09-19T02:16:34.862Z,41.99
2018-09-19T02:19:02.733Z,41.97
2018-09-19T02:21:32.221Z,41.92
2018-09-19T02:24:00.106Z,42.07
2018-09-19T02:26:27.975Z,41.46
2018-09-19T02:28:55.853Z,41.83
2018-09-19T02:31:24.011Z,41.87
2018-09-19T02:33:51.885Z,41.57
2018-09-19T02:36:22.637Z,41.43
2018-09-19T02:38:50.924Z,41.80
2018-09-19T02:41:19.124Z,41.86
2018-09-19T02:43:50.587Z,41.88
2018-09-19T02:46:18.501Z,41.39
2018-09-19T02:48:47.290Z,41.42
2018-09-19T02:51:15.873Z,41.75
2018-09-19T02:53:44.051Z,41.43
2018-09-19T02:56:11.976Z,41.66
2018-09-19T02:58:39.865Z,41.44
2018-09-19T03:01:08.779Z,41.47
2018-09-19T03:03:36.661Z,42.08
2018-09-19T03:06:04.541Z,42.02
2018-09-19T03:08:32.454Z,42.03
2018-09-19T03:11:00.346Z,41.99
2018-09-19T03:13:29.369Z,41.88
2018-09-19T03:15:57.265Z,41.50
2018-09-19T03:18:25.130Z,41.65
2018-09-19T03:20:53.007Z,41.93
2018-09-19T03:23:20.881Z,41.96
2018-09-19T03:25:48.759Z,42.42
2018-09-19T03:28:16.636Z,42.15
2018-09-19T03:30:44.551Z,42.56
2018-09-19T03:33:12.439Z,42.89
2018-09-19T03:35:40.322Z,43.29
2018-09-19T03:38:08.195Z,42.92
2018-09-19T03:40:36.126Z,42.38
2018-09-19T03:43:04.278Z,42.52
2018-09-19T03:45:32.174Z,42.09
2018-09-19T03:48:00.102Z,42.01
2018-09-19T03:50:28.002Z,42.02
2018-09-19T03:52:55.902Z,41.98
2018-09-19T03:55:23.811Z,42.14
2018-09-19T03:57:51.712Z,42.42
2018-09-19T04:00:19.660Z,42.39
2018-09-19T04:02:47.551Z,42.06
2018-09-19T04:05:15.445Z,42.55
2018-09-19T04:07:43.658Z,42.49
2018-09-19T04:10:11.553Z,42.36
2018-09-19T04:12:39.443Z,42.57
2018-09-19T04:15:07.329Z,42.38
2018-09-19T04:17:35.274Z,42.13
2018-09-19T04:20:03.141Z,42.00
2018-09-19T04:22:31.035Z,42.25
2018-09-19T04:25:00.453Z,42.29
2018-09-19T04:27:28.340Z,42.15
2018-09-19T04:29:56.281Z,42.37
2018-09-19T04:32:24.324Z,42.07
2018-09-19T04:34:52.134Z,42.48
2018-09-19T04:37:21.208Z,42.26
2018-09-19T04:39:49.097Z,42.39
2018-09-19T04:42:16.988Z,42.47
2018-09-19T04:44:44.882Z,42.11
2018-09-19T04:47:12.755Z,42.06
2018-09-19T04:49:42.643Z,42.24
2018-09-19T04:52:10.530Z,42.01
2018-09-19T04:54:38.405Z,42.16
2018-09-19T04:57:06.314Z,42.17
2018-09-19T04:59:34.194Z,41.92
2018-09-19T05:02:02.108Z,41.93
2018-09-19T05:04:30.003Z,42.28
2018-09-19T05:06:57.870Z,42.13
2018-09-19T05:09:25.762Z,41.67
2018-09-19T05:11:53.651Z,42.05
2018-09-19T05:14:21.605Z,42.04
2018-09-19T05:16:49.506Z,42.18
2018-09-19T05:19:17.448Z,42.01
2018-09-19T05:21:45.389Z,41.74
2018-09-19T05:24:13.238Z,42.12
2018-09-19T05:26:41.151Z,41.76
2018-09-19T05:29:09.037Z,41.56
2018-09-19T05:31:37.997Z,41.66
2018-09-19T05:34:05.927Z,41.66
2018-09-19T05:36:33.811Z,41.75
2018-09-19T05:39:01.702Z,42.03
2018-09-19T05:41:29.560Z,41.77
2018-09-19T05:43:58.821Z,41.70
2018-09-19T05:46:26.776Z,41.51
2018-09-19T05:48:54.589Z,41.50
2018-09-19T05:51:22.475Z,41.69
2018-09-19T05:53:50.386Z,41.54
2018-09-19T05:56:18.586Z,41.78
2018-09-19T05:58:46.503Z,41.61
2018-09-19T06:01:14.372Z,41.62
2018-09-19T06:03:46.021Z,41.15
2018-09-19T06:06:13.922Z,41.42
2018-09-19T06:08:41.875Z,41.07
2018-09-19T06:11:13.045Z,41.44
2018-09-19T06:13:41.060Z,40.93
2018-09-19T06:16:08.945Z,40.85
2018-09-19T06:18:36.847Z,41.07
2018-09-19T06:21:04.756Z,40.94
2018-09-19T06:23:33.881Z,41.23
2018-09-19T06:26:01.761Z,41.18
2018-09-19T06:28:29.664Z,41.23
2018-09-19T06:30:57.541Z,41.18
2018-09-19T06:33:25.474Z,41.15
2018-09-19T06:35:53.347Z,40.62
2018-09-19T06:38:21.278Z,40.80
2018-09-19T06:40:50.443Z,40.68
2018-09-19T06:43:18.290Z,40.84
2018-09-19T06:45:46.267Z,40.85
2018-09-19T06:48:14.175Z,40.85
2018-09-19T06:50:42.047Z,40.59
2018-09-19T06:53:10.271Z,40.96
2018-09-19T06:55:38.164Z,40.72
2018-09-19T06:58:06.445Z,40.62
2018-09-19T07:00:34.410Z,40.91
2018-09-19T07:03:02.311Z,40.88
2018-09-19T07:05:30.199Z,40.39
2018-09-19T07:07:58.192Z,40.91
2018-09-19T07:10:26.125Z,40.68
2018-09-19T07:12:54.006Z,40.81
2018-09-19T07:15:21.931Z,40.55
2018-09-19T07:17:50.881Z,40.59
2018-09-19T07:20:18.795Z,40.84
2018-09-19T07:22:46.760Z,40.48
2018-09-19T07:25:14.675Z,40.31
2018-09-19T07:27:42.568Z,40.67
2018-09-19T07:30:11.453Z,40.63
2018-09-19T07:32:39.382Z,40.34
2018-09-19T07:35:07.816Z,40.48
2018-09-19T07:37:35.716Z,40.74
2018-09-19T07:40:03.602Z,40.52
2018-09-19T07:42:31.469Z,40.71
2018-09-19T07:44:59.493Z,40.31
2018-09-19T07:47:30.482Z,40.00
2018-09-19T07:49:58.395Z,40.34
2018-09-19T07:52:26.255Z,40.59
2018-09-19T07:54:54.144Z,40.18
2018-09-19T07:57:22.079Z,40.26
2018-09-19T07:59:51.063Z,40.40
2018-09-19T08:02:18.945Z,40.57
2018-09-19T08:04:46.897Z,40.32
2018-09-19T08:07:14.789Z,40.52
2018-09-19T08:09:42.696Z,40.05
2018-09-19T08:12:10.855Z,40.43
2018-09-19T08:14:38.745Z,40.39
2018-09-19T08:17:06.614Z,40.50
2018-09-19T08:19:34.529Z,40.27
2018-09-19T08:22:02.438Z,40.55
2018-09-19T08:24:31.958Z,40.15
2018-09-19T08:26:59.888Z,40.48
2018-09-19T08:29:27.785Z,40.71
2018-09-19T08:31:55.669Z,40.48
2018-09-19T08:34:25.506Z,40.49
2018-09-19T08:36:53.391Z,40.29
2018-09-19T08:39:21.296Z,40.53
2018-09-19T08:41:49.417Z,40.29
2018-09-19T08:44:17.343Z,40.73
2018-09-19T08:46:45.276Z,40.35
2018-09-19T08:49:13.187Z,40.16
2018-09-19T08:51:41.092Z,40.42
2018-09-19T08:54:09.006Z,40.46
2018-09-19T08:56:36.898Z,40.64
2018-09-19T08:59:04.803Z,40.58
2018-09-19T09:01:32.694Z,40.22
2018-09-19T09:04:00.599Z,40.32
2018-09-19T09:06:28.577Z,40.61
2018-09-19T09:08:56.456Z,40.48
2018-09-19T09:11:25.059Z,40.47
2018-09-19T09:13:52.958Z,40.17
2018-09-19T09:16:20.978Z,40.65
2018-09-19T09:18:48.860Z,40.34
2018-09-19T09:21:16.759Z,40.79
2018-09-19T09:23:46.011Z,41.08
2018-09-19T09:26:13.995Z,41.18
2018-09-19T09:28:41.894Z,40.63
2018-09-19T09:31:09.839Z,40.49
2018-09-19T09:33:37.732Z,40.67
2018-09-19T09:36:05.643Z,40.54
2018-09-19T09:38:33.706Z,40.98
2018-09-19T09:41:01.573Z,40.74
2018-09-19T09:43:29.491Z,40.99
2018-09-19T09:45:57.431Z,40.69
2018-09-19T09:48:26.066Z,40.46
2018-09-19T09:50:53.956Z,40.29
2018-09-19T09:53:21.917Z,40.40
2018-09-19T09:55:49.817Z,40.63
2018-09-19T09:58:17.722Z,40.32
2018-09-19T10:00:46.182Z,40.71
2018-09-19T10:03:14.154Z,40.24
2018-09-19T10:05:42.150Z,40.25
2018-09-19T10:08:10.025Z,40.66
2018-09-19T10:10:38.728Z,40.27
2018-09-19T10:13:06.612Z,40.37
2018-09-19T10:15:34.736Z,40.74
2018-09-19T10:18:02.647Z,40.59
2018-09-19T10:20:30.581Z,40.31
2018-09-19T10:22:58.502Z,40.39
2018-09-19T10:25:26.483Z,40.24
2018-09-19T10:27:54.383Z,39.95
2018-09-19T10:30:23.347Z,40.48
2018-09-19T10:32:51.233Z,40.02
2018-09-19T10:35:19.325Z,40.19
2018-09-19T10:37:47.199Z,40.35
2018-09-19T10:40:15.075Z,40.15
2018-09-19T10:42:42.964Z,40.66
2018-09-19T10:45:10.845Z,40.57
2018-09-19T10:47:38.772Z,40.20
2018-09-19T10:50:07.002Z,40.49
2018-09-19T10:52:34.871Z,40.03
2018-09-19T10:55:02.771Z,39.84
2018-09-19T10:57:30.661Z,39.79
2018-09-19T10:59:58.622Z,40.21
2018-09-19T11:02:26.497Z,40.43
2018-09-19T11:04:54.398Z,40.10
2018-09-19T11:07:22.274Z,40.57
2018-09-19T11:09:50.174Z,40.02
2018-09-19T11:12:18.102Z,40.02
2018-09-19T11:14:45.989Z,40.20
2018-09-19T11:17:14.129Z,40.57
2018-09-19T11:19:42.023Z,40.44
2018-09-19T11:22:09.888Z,40.08
2018-09-19T11:24:37.758Z,40.64
2018-09-19T11:27:05.657Z,40.43
2018-09-19T11:29:33.555Z,40.28
2018-09-19T11:32:02.788Z,40.66
2018-09-19T11:34:30.696Z,40.59
2018-09-19T11:36:58.614Z,40.29
2018-09-19T11:39:26.534Z,40.55
2018-09-19T11:41:54.444Z,40.49
2018-09-19T11:44:22.353Z,40.06
2018-09-19T11:46:50.251Z,40.66
2018-09-19T11:49:18.120Z,40.50
2018-09-19T11:51:47.681Z,40.55
2018-09-19T11:54:15.675Z,40.77
2018-09-19T11:56:43.572Z,40.50
2018-09-19T11:59:11.457Z,40.39
2018-09-19T12:01:39.330Z,40.91
2018-09-19T12:04:12.740Z,40.46
2018-09-19T12:06:40.605Z,40.94
2018-09-19T12:09:09.184Z,40.58
2018-09-19T12:11:37.172Z,40.56
2018-09-19T12:14:05.153Z,40.64
2018-09-19T12:16:33.875Z,40.84
2018-09-19T12:19:01.760Z,40.52
2018-09-19T12:21:29.695Z,40.90
2018-09-19T12:23:57.598Z,40.57
2018-09-19T12:26:25.568Z,40.84
2018-09-19T12:28:56.561Z,40.54
2018-09-19T12:31:24.416Z,40.63
2018-09-19T12:33:52.334Z,40.92
2018-09-19T12:36:21.072Z,40.81
2018-09-19T12:38:48.954Z,40.40
2018-09-19T12:41:17.631Z,40.41
2018-09-19T12:43:45.598Z,40.82
2018-09-19T12:46:13.514Z,40.97
2018-09-19T12:48:41.400Z,40.65
2018-09-19T12:51:09.313Z,40.53
2018-09-19T12:53:37.209Z,40.75
2018-09-19T12:56:05.081Z,41.01
2018-09-19T12:58:33.545Z,41.06
2018-09-19T13:01:01.435Z,40.89
2018-09-19T13:03:29.393Z,40.63
2018-09-19T13:05:57.291Z,40.60
2018-09-19T13:08:25.197Z,40.64
2018-09-19T13:10:53.093Z,40.93
2018-09-19T13:13:20.996Z,40.56
2018-09-19T13:15:49.713Z,41.20
2018-09-19T13:18:17.613Z,41.16
2018-09-19T13:20:45.798Z,41.04
2018-09-19T13:23:13.701Z,40.70
2018-09-19T13:25:41.597Z,40.98
2018-09-19T13:28:10.716Z,41.10
2018-09-19T13:30:38.639Z,40.69
2018-09-19T13:33:06.510Z,41.13
2018-09-19T13:35:34.390Z,41.06
2018-09-19T13:38:02.255Z,40.89
2018-09-19T13:40:31.518Z,41.06
2018-09-19T13:42:59.482Z,40.80
2018-09-19T13:45:27.409Z,41.23
2018-09-19T13:47:55.314Z,40.75
2018-09-19T13:50:27.020Z,40.88
2018-09-19T13:52:54.979Z,40.96
2018-09-19T13:55:22.954Z,41.02
2018-09-19T13:57:51.163Z,40.90
2018-09-19T14:00:19.040Z,41.13
2018-09-19T14:02:46.950Z,40.96
2018-09-19T14:05:14.915Z,40.76
2018-09-19T14:07:42.811Z,40.92
2018-09-19T14:10:10.950Z,40.93
2018-09-19T14:12:38.829Z,40.80
2018-09-19T14:15:06.741Z,41.15
2018-09-19T14:17:34.662Z,40.82
2018-09-19T14:20:02.572Z,41.29
2018-09-19T14:22:30.457Z,41.13
2018-09-19T14:24:58.327Z,40.79
2018-09-19T14:27:27.150Z,40.87
2018-09-19T14:29:55.108Z,40.82
2018-09-19T14:32:23.023Z,40.79
2018-09-19T14:34:51.906Z,41.15
2018-09-19T14:37:19.825Z,38.24
2018-09-19T14:39:47.751Z,39.28
2018-09-19T14:42:15.646Z,39.13
2018-09-19T14:44:43.541Z,39.01
2018-09-19T14:47:12.829Z,38.51
2018-09-19T14:49:40.757Z,37.99
2018-09-19T14:52:08.689Z,37.18
2018-09-19T14:54:36.648Z,37.72
2018-09-19T14:57:04.488Z,35.83
2018-09-19T14:59:32.392Z,37.49
2018-09-19T15:02:00.280Z,36.27
2018-09-19T15:04:28.862Z,35.88
2018-09-19T15:06:56.753Z,35.58
2018-09-19T15:09:25.592Z,35.53
2018-09-19T15:11:53.485Z,36.40
2018-09-19T15:14:21.392Z,36.07
2018-09-19T15:16:49.331Z,35.42
2018-09-19T15:19:17.236Z,35.82
2018-09-19T15:21:45.152Z,35.99
2018-09-19T15:24:13.053Z,36.75
2018-09-19T15:26:40.954Z,35.52
2018-09-19T15:29:08.866Z,35.93
2018-09-19T15:31:36.765Z,35.32
2018-09-19T15:34:05.551Z,35.85
2018-09-19T15:36:33.482Z,35.45
2018-09-19T15:39:01.417Z,35.97
2018-09-19T15:41:29.312Z,35.10
2018-09-19T15:43:57.213Z,35.69
2018-09-19T15:46:26.212Z,35.59
2018-09-19T15:48:54.104Z,35.46
2018-09-19T15:51:21.992Z,34.90
2018-09-19T15:53:49.907Z,35.16
2018-09-19T15:56:17.773Z,35.29
2018-09-19T15:58:45.714Z,35.09
2018-09-19T16:01:13.616Z,35.24
2018-09-19T16:03:44.156Z,34.82
2018-09-19T16:06:12.125Z,34.71
2018-09-19T16:08:39.990Z,34.62
2018-09-19T16:11:08.112Z,35.22
2018-09-19T16:13:36.054Z,34.97
2018-09-19T16:16:05.199Z,35.22
2018-09-19T16:18:33.149Z,34.92
2018-09-19T16:21:01.033Z,34.94
2018-09-19T16:23:28.958Z,34.92
2018-09-19T16:25:56.873Z,34.81
2018-09-19T16:28:24.772Z,34.96
2018-09-19T16:30:52.659Z,35.09
2018-09-19T16:33:21.442Z,35.35
2018-09-19T16:35:49.339Z,35.53
2018-09-19T16:38:17.283Z,35.00
2018-09-19T16:40:45.166Z,35.33
2018-09-19T16:43:13.064Z,36.03
2018-09-19T16:45:41.006Z,35.62
2018-09-19T16:48:09.833Z,35.72
2018-09-19T16:50:37.771Z,35.47
2018-09-19T16:53:05.739Z,36.13
2018-09-19T16:55:33.603Z,36.00
2018-09-19T16:58:01.513Z,35.90
2018-09-19T17:00:29.627Z,36.19
2018-09-19T17:02:57.537Z,35.50
2018-09-19T17:05:25.430Z,35.67
2018-09-19T17:07:53.345Z,36.56
2018-09-19T17:10:21.223Z,35.96
2018-09-19T17:12:49.534Z,36.13
2018-09-19T17:15:17.417Z,36.10
2018-09-19T17:17:45.324Z,35.97
2018-09-19T17:20:13.255Z,36.19
2018-09-19T17:22:41.146Z,36.12
2018-09-19T17:25:09.071Z,35.99
2018-09-19T17:27:36.959Z,36.37
2018-09-19T17:30:05.173Z,36.51
2018-09-19T17:32:33.106Z,37.10
2018-09-19T17:35:01.092Z,37.23
2018-09-19T17:37:28.993Z,37.53
2018-09-19T17:39:57.521Z,37.14
2018-09-19T17:42:25.717Z,36.82
2018-09-19T17:44:53.623Z,36.80
2018-09-19T17:47:21.552Z,37.27
2018-09-19T17:49:49.473Z,37.38
2018-09-19T17:52:17.379Z,36.56
2018-09-19T17:54:45.248Z,36.41
2018-09-19T17:57:13.138Z,36.75
2018-09-19T17:59:44.355Z,36.33
2018-09-19T18:02:12.277Z,36.83
2018-09-19T18:04:40.173Z,36.82
2018-09-19T18:07:08.057Z,36.83
2018-09-19T18:09:36.081Z,37.23
2018-09-19T18:12:04.279Z,37.06
2018-09-19T18:14:32.165Z,36.44
2018-09-19T18:17:00.109Z,36.44
2018-09-19T18:19:28.020Z,36.69
2018-09-19T18:21:55.932Z,36.78
2018-09-19T18:24:23.832Z,36.99
2018-09-19T18:26:51.712Z,37.19
2018-09-19T18:29:19.770Z,37.67
2018-09-19T18:31:47.644Z,37.49
2018-09-19T18:34:15.529Z,37.66
2018-09-19T18:36:43.434Z,37.88
2018-09-19T18:39:11.349Z,37.64
2018-09-19T18:41:42.509Z,38.01
2018-09-19T18:44:10.441Z,37.79
2018-09-19T18:46:38.403Z,37.93
2018-09-19T18:49:06.316Z,38.38
2018-09-19T18:51:34.220Z,38.35
2018-09-19T18:54:02.145Z,38.07
2018-09-19T18:56:30.061Z,38.22
2018-09-19T18:59:01.727Z,38.17
2018-09-19T19:01:29.658Z,38.66
2018-09-19T19:03:57.549Z,38.31
2018-09-19T19:06:25.444Z,38.33
2018-09-19T19:08:53.335Z,38.37
2018-09-19T19:11:22.238Z,38.43
2018-09-19T19:13:50.105Z,38.86
2018-09-19T19:16:18.284Z,38.82
2018-09-19T19:18:46.260Z,38.62
2018-09-19T19:21:14.155Z,38.40
2018-09-19T19:23:43.902Z,38.43
2018-09-19T19:26:11.825Z,38.66
2018-09-19T19:28:39.717Z,38.85
2018-09-19T19:31:07.616Z,38.88
2018-09-19T19:33:35.542Z,39.06
2018-09-19T19:36:03.605Z,38.58
2018-09-19T19:38:31.509Z,39.14
2018-09-19T19:40:59.411Z,39.07
2018-09-19T19:43:27.324Z,38.79
2018-09-19T19:45:55.918Z,39.26
2018-09-19T19:48:25.278Z,39.19
2018-09-19T19:50:53.197Z,38.98
2018-09-19T19:53:21.150Z,38.95
2018-09-19T19:55:49.012Z,38.90
2018-09-19T19:58:17.793Z,39.18
2018-09-19T20:00:45.764Z,39.08
2018-09-19T20:03:13.659Z,38.80
2018-09-19T20:05:41.993Z,38.80
2018-09-19T20:08:09.862Z,38.74
2018-09-19T20:10:37.806Z,38.77
2018-09-19T20:13:06.352Z,39.32
2018-09-19T20:15:34.256Z,39.17
2018-09-19T20:18:02.475Z,39.21
2018-09-19T20:20:30.355Z,39.39
2018-09-19T20:22:58.244Z,39.07
2018-09-19T20:25:26.121Z,39.29
2018-09-19T20:27:54.013Z,38.82
2018-09-19T20:30:21.945Z,39.28
2018-09-19T20:32:49.823Z,38.83
2018-09-19T20:35:17.729Z,38.85
2018-09-19T20:37:45.595Z,39.12
2018-09-19T20:40:13.467Z,38.96
2018-09-19T20:42:41.427Z,39.39
2018-09-19T20:45:09.331Z,38.93
2018-09-19T20:47:37.214Z,39.43
2018-09-19T20:50:05.200Z,39.46
2018-09-19T20:52:33.070Z,39.29
2018-09-19T20:55:01.260Z,39.23
2018-09-19T20:57:29.210Z,39.44
2018-09-19T20:59:57.229Z,39.09
2018-09-19T21:02:25.120Z,39.41
2018-09-19T21:04:53.099Z,39.29
2018-09-19T21:07:22.782Z,39.38
2018-09-19T21:09:51.842Z,39.33
2018-09-19T21:12:19.811Z,39.30
2018-09-19T21:14:47.681Z,39.12
2018-09-19T21:17:15.567Z,39.62
2018-09-19T21:19:44.420Z,39.55
2018-09-19T21:22:12.513Z,39.21
2018-09-19T21:24:40.282Z,39.54
2018-09-19T21:27:08.362Z,39.32
2018-09-19T21:29:36.446Z,39.17
2018-09-19T21:32:04.534Z,39.24
2018-09-19T21:34:32.748Z,39.41
2018-09-19T21:37:01.453Z,39.25
2018-09-19T21:39:29.607Z,39.26
2018-09-19T21:41:57.711Z,39.27
2018-09-19T21:44:25.792Z,39.44
2018-09-19T21:46:53.895Z,39.65
2018-09-19T21:49:22.762Z,39.61
2018-09-19T21:51:50.806Z,39.41
2018-09-19T21:54:18.976Z,39.06
2018-09-19T21:56:47.066Z,39.20
2018-09-19T21:59:14.984Z,39.21
2018-09-19T22:01:43.767Z,39.50
2018-09-19T22:04:12.188Z,39.47
2018-09-19T22:06:40.771Z,39.44
2018-09-19T22:09:11.600Z,39.03
2018-09-19T22:11:40.088Z,39.13
2018-09-19T22:14:08.509Z,39.32
2018-09-19T22:16:38.057Z,39.29
2018-09-19T22:19:06.145Z,39.10
2018-09-19T22:21:34.418Z,39.07
2018-09-19T22:24:02.493Z,39.00
2018-09-19T22:26:30.682Z,39.40
2018-09-19T22:28:59.105Z,39.16
2018-09-19T22:31:27.965Z,39.38
2018-09-19T22:33:56.410Z,39.35
2018-09-19T22:36:24.589Z,39.06
2018-09-19T22:38:52.683Z,39.37
2018-09-19T22:41:21.353Z,39.52
2018-09-19T22:43:49.773Z,39.17
2018-09-19T22:46:17.970Z,39.48
2018-09-19T22:48:46.605Z,39.05
2018-09-19T22:51:14.743Z,39.05
2018-09-19T22:53:43.025Z,39.58
2018-09-19T22:56:11.131Z,39.27
2018-09-19T22:58:39.266Z,39.37
2018-09-19T23:01:07.315Z,39.56
2018-09-19T23:03:35.420Z,39.55
2018-09-19T23:06:03.600Z,39.44
2018-09-19T23:08:31.581Z,39.48
2018-09-19T23:11:00.815Z,39.00
2018-09-19T23:13:28.885Z,39.01
2018-09-19T23:15:56.994Z,39.55
2018-09-19T23:18:25.070Z,39.51
2018-09-19T23:20:53.152Z,39.18
2018-09-19T23:23:21.615Z,39.42
2018-09-19T23:25:49.647Z,39.06
2018-09-19T23:28:17.646Z,39.21
2018-09-19T23:30:46.027Z,39.55
2018-09-19T23:33:14.119Z,39.05
2018-09-19T23:35:42.527Z,39.54
2018-09-19T23:38:10.605Z,39.66
2018-09-19T23:40:38.691Z,39.27
2018-09-19T23:43:06.790Z,39.43
2018-09-19T23:45:34.974Z,39.37
2018-09-19T23:48:03.341Z,39.24
2018-09-19T23:50:31.462Z,39.62
2018-09-19T23:52:59.490Z,39.51
2018-09-19T23:55:27.437Z,39.43
2018-09-19T23:57:55.445Z,39.62
